sensor_id;sensor_type;location;lat;lon;timestamp;P1;durP1;ratioP1;P2;durP2;ratioP2
27365;SDS011;14837;57.148;-2.144;2024-02-26T00:00:46;0.70;;;0.70;;
27365;SDS011;14837;57.148;-2.144;2024-02-26T00:03:13;2.20;;;0.70;;
27365;SDS011;14837;57.148;-2.144;2024-02-26T00:05:39;0.73;;;0.73;;
27365;SDS011;14837;57.148;-2.144;2024-02-26T00:08:06;1.38;;;0.90;;
27365;SDS011;14837;57.148;-2.144;2024-02-26T00:10:33;2.03;;;1.00;;
27365;SDS011;14837;57.148;-2.144;2024-02-26T00:12:59;1.58;;;1.00;;
27365;SDS011;14837;57.148;-2.144;2024-02-26T00:15:26;1.42;;;0.80;;
27365;SDS011;14837;57.148;-2.144;2024-02-26T00:17:54;0.85;;;0.70;;
27365;SDS011;14837;57.148;-2.144;2024-02-26T00:20:21;1.75;;;1.00;;
27365;SDS011;14837;57.148;-2.144;2024-02-26T00:22:47;3.28;;;1.00;;
27365;SDS011;14837;57.148;-2.144;2024-02-26T00:25:14;1.70;;;1.05;;
27365;SDS011;14837;57.148;-2.144;2024-02-26T00:27:40;2.08;;;0.90;;
27365;SDS011;14837;57.148;-2.144;2024-02-26T00:30:08;0.85;;;0.70;;
27365;SDS011;14837;57.148;-2.144;2024-02-26T00:32:35;1.95;;;0.90;;
27365;SDS011;14837;57.148;-2.144;2024-02-26T00:35:01;2.30;;;0.98;;
27365;SDS011;14837;57.148;-2.144;2024-02-26T00:37:28;0.90;;;0.75;;
27365;SDS011;14837;57.148;-2.144;2024-02-26T00:39:54;0.60;;;0.60;;
27365;SDS011;14837;57.148;-2.144;2024-02-26T00:42:21;1.67;;;0.88;;
27365;SDS011;14837;57.148;-2.144;2024-02-26T00:44:48;1.45;;;0.73;;
27365;SDS011;14837;57.148;-2.144;2024-02-26T00:47:14;1.08;;;0.80;;
27365;SDS011;14837;57.148;-2.144;2024-02-26T00:49:40;0.90;;;0.57;;
27365;SDS011;14837;57.148;-2.144;2024-02-26T00:52:07;1.67;;;0.90;;
27365;SDS011;14837;57.148;-2.144;2024-02-26T00:54:34;2.22;;;0.80;;
27365;SDS011;14837;57.148;-2.144;2024-02-26T00:57:00;4.10;;;0.80;;
27365;SDS011;14837;57.148;-2.144;2024-02-26T00:59:27;1.63;;;0.90;;
27365;SDS011;14837;57.148;-2.144;2024-02-26T01:01:53;1.15;;;0.93;;
27365;SDS011;14837;57.148;-2.144;2024-02-26T01:04:20;1.63;;;0.90;;
27365;SDS011;14837;57.148;-2.144;2024-02-26T01:06:46;4.18;;;1.10;;
27365;SDS011;14837;57.148;-2.144;2024-02-26T01:09:13;3.53;;;0.85;;
27365;SDS011;14837;57.148;-2.144;2024-02-26T01:11:39;2.05;;;0.82;;
27365;SDS011;14837;57.148;-2.144;2024-02-26T01:14:06;2.70;;;0.75;;
27365;SDS011;14837;57.148;-2.144;2024-02-26T01:16:33;1.23;;;0.70;;
27365;SDS011;14837;57.148;-2.144;2024-02-26T01:18:59;1.23;;;0.70;;
27365;SDS011;14837;57.148;-2.144;2024-02-26T01:21:26;1.48;;;0.90;;
27365;SDS011;14837;57.148;-2.144;2024-02-26T01:23:55;2.20;;;0.63;;
27365;SDS011;14837;57.148;-2.144;2024-02-26T01:26:22;2.38;;;1.02;;
27365;SDS011;14837;57.148;-2.144;2024-02-26T01:28:48;1.23;;;0.80;;
27365;SDS011;14837;57.148;-2.144;2024-02-26T01:31:15;2.13;;;1.15;;
27365;SDS011;14837;57.148;-2.144;2024-02-26T01:33:41;1.10;;;0.77;;
27365;SDS011;14837;57.148;-2.144;2024-02-26T01:36:08;1.95;;;1.00;;
27365;SDS011;14837;57.148;-2.144;2024-02-26T01:38:35;0.90;;;0.77;;
27365;SDS011;14837;57.148;-2.144;2024-02-26T01:41:01;3.55;;;1.10;;
27365;SDS011;14837;57.148;-2.144;2024-02-26T01:43:28;1.27;;;0.77;;
27365;SDS011;14837;57.148;-2.144;2024-02-26T01:45:55;2.33;;;0.77;;
27365;SDS011;14837;57.148;-2.144;2024-02-26T01:48:21;1.77;;;1.13;;
27365;SDS011;14837;57.148;-2.144;2024-02-26T01:50:48;0.77;;;0.70;;
27365;SDS011;14837;57.148;-2.144;2024-02-26T01:53:15;1.23;;;0.77;;
27365;SDS011;14837;57.148;-2.144;2024-02-26T01:55:42;2.35;;;0.90;;
27365;SDS011;14837;57.148;-2.144;2024-02-26T01:58:08;2.25;;;1.00;;
27365;SDS011;14837;57.148;-2.144;2024-02-26T02:00:35;2.47;;;0.90;;
27365;SDS011;14837;57.148;-2.144;2024-02-26T02:03:02;2.53;;;0.80;;
27365;SDS011;14837;57.148;-2.144;2024-02-26T02:05:30;3.17;;;0.82;;
27365;SDS011;14837;57.148;-2.144;2024-02-26T02:07:56;1.13;;;0.80;;
27365;SDS011;14837;57.148;-2.144;2024-02-26T02:10:23;1.95;;;1.25;;
27365;SDS011;14837;57.148;-2.144;2024-02-26T02:12:52;1.95;;;0.85;;
27365;SDS011;14837;57.148;-2.144;2024-02-26T02:15:19;1.00;;;0.60;;
27365;SDS011;14837;57.148;-2.144;2024-02-26T02:17:46;2.47;;;0.70;;
27365;SDS011;14837;57.148;-2.144;2024-02-26T02:20:16;1.83;;;0.98;;
27365;SDS011;14837;57.148;-2.144;2024-02-26T02:22:46;0.98;;;0.80;;
27365;SDS011;14837;57.148;-2.144;2024-02-26T02:25:12;1.23;;;0.70;;
27365;SDS011;14837;57.148;-2.144;2024-02-26T02:27:39;1.48;;;0.70;;
27365;SDS011;14837;57.148;-2.144;2024-02-26T02:30:06;1.40;;;1.17;;
27365;SDS011;14837;57.148;-2.144;2024-02-26T02:32:34;1.15;;;0.65;;
27365;SDS011;14837;57.148;-2.144;2024-02-26T02:35:01;0.85;;;0.60;;
27365;SDS011;14837;57.148;-2.144;2024-02-26T02:37:28;1.77;;;0.77;;
27365;SDS011;14837;57.148;-2.144;2024-02-26T02:39:54;2.53;;;0.80;;
27365;SDS011;14837;57.148;-2.144;2024-02-26T02:42:24;1.05;;;0.85;;
27365;SDS011;14837;57.148;-2.144;2024-02-26T02:44:50;2.50;;;0.50;;
27365;SDS011;14837;57.148;-2.144;2024-02-26T02:47:17;2.42;;;0.85;;
27365;SDS011;14837;57.148;-2.144;2024-02-26T02:49:44;1.00;;;0.60;;
27365;SDS011;14837;57.148;-2.144;2024-02-26T02:52:10;1.33;;;0.80;;
27365;SDS011;14837;57.148;-2.144;2024-02-26T02:54:37;2.22;;;0.80;;
27365;SDS011;14837;57.148;-2.144;2024-02-26T02:57:06;0.82;;;0.70;;
27365;SDS011;14837;57.148;-2.144;2024-02-26T02:59:33;1.85;;;0.80;;
27365;SDS011;14837;57.148;-2.144;2024-02-26T03:02:00;0.82;;;0.60;;
27365;SDS011;14837;57.148;-2.144;2024-02-26T03:04:27;1.60;;;0.77;;
27365;SDS011;14837;57.148;-2.144;2024-02-26T03:06:53;0.77;;;0.60;;
27365;SDS011;14837;57.148;-2.144;2024-02-26T03:09:20;1.48;;;0.73;;
27365;SDS011;14837;57.148;-2.144;2024-02-26T03:11:47;1.25;;;1.15;;
27365;SDS011;14837;57.148;-2.144;2024-02-26T03:14:14;2.10;;;0.60;;
27365;SDS011;14837;57.148;-2.144;2024-02-26T03:16:40;1.45;;;1.00;;
27365;SDS011;14837;57.148;-2.144;2024-02-26T03:19:08;0.55;;;0.50;;
27365;SDS011;14837;57.148;-2.144;2024-02-26T03:21:34;0.77;;;0.70;;
27365;SDS011;14837;57.148;-2.144;2024-02-26T03:24:01;0.60;;;0.60;;
27365;SDS011;14837;57.148;-2.144;2024-02-26T03:26:28;0.60;;;0.60;;
27365;SDS011;14837;57.148;-2.144;2024-02-26T03:28:55;0.55;;;0.40;;
27365;SDS011;14837;57.148;-2.144;2024-02-26T03:31:21;0.63;;;0.63;;
27365;SDS011;14837;57.148;-2.144;2024-02-26T03:33:48;0.70;;;0.70;;
27365;SDS011;14837;57.148;-2.144;2024-02-26T03:36:15;1.05;;;0.70;;
27365;SDS011;14837;57.148;-2.144;2024-02-26T03:38:42;1.55;;;0.45;;
27365;SDS011;14837;57.148;-2.144;2024-02-26T03:41:08;1.83;;;0.93;;
27365;SDS011;14837;57.148;-2.144;2024-02-26T03:43:35;0.85;;;0.50;;
27365;SDS011;14837;57.148;-2.144;2024-02-26T03:46:02;1.77;;;0.63;;
27365;SDS011;14837;57.148;-2.144;2024-02-26T03:48:28;1.42;;;0.70;;
27365;SDS011;14837;57.148;-2.144;2024-02-26T03:50:55;4.30;;;1.35;;
27365;SDS011;14837;57.148;-2.144;2024-02-26T03:53:22;2.65;;;1.77;;
27365;SDS011;14837;57.148;-2.144;2024-02-26T03:55:48;1.98;;;0.80;;
27365;SDS011;14837;57.148;-2.144;2024-02-26T03:58:15;1.00;;;0.60;;
27365;SDS011;14837;57.148;-2.144;2024-02-26T04:00:42;2.55;;;0.90;;
27365;SDS011;14837;57.148;-2.144;2024-02-26T04:03:09;0.47;;;0.47;;
27365;SDS011;14837;57.148;-2.144;2024-02-26T04:05:36;0.60;;;0.60;;
27365;SDS011;14837;57.148;-2.144;2024-02-26T04:08:02;0.90;;;0.57;;
27365;SDS011;14837;57.148;-2.144;2024-02-26T04:10:30;1.80;;;0.80;;
27365;SDS011;14837;57.148;-2.144;2024-02-26T04:12:57;3.25;;;0.70;;
27365;SDS011;14837;57.148;-2.144;2024-02-26T04:15:23;1.17;;;0.90;;
27365;SDS011;14837;57.148;-2.144;2024-02-26T04:17:50;4.35;;;0.85;;
27365;SDS011;14837;57.148;-2.144;2024-02-26T04:20:17;0.95;;;0.70;;
27365;SDS011;14837;57.148;-2.144;2024-02-26T04:22:43;1.25;;;0.75;;
27365;SDS011;14837;57.148;-2.144;2024-02-26T04:25:11;1.77;;;0.60;;
27365;SDS011;14837;57.148;-2.144;2024-02-26T04:27:37;2.78;;;0.82;;
27365;SDS011;14837;57.148;-2.144;2024-02-26T04:30:05;1.83;;;1.00;;
27365;SDS011;14837;57.148;-2.144;2024-02-26T04:32:32;1.17;;;0.70;;
27365;SDS011;14837;57.148;-2.144;2024-02-26T04:34:59;1.92;;;0.90;;
27365;SDS011;14837;57.148;-2.144;2024-02-26T04:37:26;0.60;;;0.50;;
27365;SDS011;14837;57.148;-2.144;2024-02-26T04:39:58;1.10;;;0.80;;
27365;SDS011;14837;57.148;-2.144;2024-02-26T04:42:25;1.95;;;1.38;;
27365;SDS011;14837;57.148;-2.144;2024-02-26T04:44:52;1.13;;;0.60;;
27365;SDS011;14837;57.148;-2.144;2024-02-26T04:47:19;2.05;;;0.70;;
27365;SDS011;14837;57.148;-2.144;2024-02-26T04:49:45;0.95;;;0.60;;
27365;SDS011;14837;57.148;-2.144;2024-02-26T04:52:12;2.60;;;1.20;;
27365;SDS011;14837;57.148;-2.144;2024-02-26T04:54:38;1.08;;;0.68;;
27365;SDS011;14837;57.148;-2.144;2024-02-26T04:57:05;1.83;;;0.85;;
27365;SDS011;14837;57.148;-2.144;2024-02-26T04:59:31;2.78;;;0.55;;
27365;SDS011;14837;57.148;-2.144;2024-02-26T05:01:58;1.85;;;1.13;;
27365;SDS011;14837;57.148;-2.144;2024-02-26T05:04:24;2.15;;;0.75;;
27365;SDS011;14837;57.148;-2.144;2024-02-26T05:06:51;3.60;;;0.85;;
27365;SDS011;14837;57.148;-2.144;2024-02-26T05:09:17;1.33;;;1.23;;
27365;SDS011;14837;57.148;-2.144;2024-02-26T05:11:44;1.13;;;0.73;;
27365;SDS011;14837;57.148;-2.144;2024-02-26T05:14:11;2.10;;;0.90;;
27365;SDS011;14837;57.148;-2.144;2024-02-26T05:16:37;0.93;;;0.60;;
27365;SDS011;14837;57.148;-2.144;2024-02-26T05:19:04;0.73;;;0.73;;
27365;SDS011;14837;57.148;-2.144;2024-02-26T05:21:32;3.63;;;0.80;;
27365;SDS011;14837;57.148;-2.144;2024-02-26T05:24:00;2.47;;;0.80;;
27365;SDS011;14837;57.148;-2.144;2024-02-26T05:26:27;1.92;;;0.90;;
27365;SDS011;14837;57.148;-2.144;2024-02-26T05:28:53;1.70;;;0.95;;
27365;SDS011;14837;57.148;-2.144;2024-02-26T05:31:26;2.10;;;0.88;;
27365;SDS011;14837;57.148;-2.144;2024-02-26T05:33:52;4.00;;;1.00;;
27365;SDS011;14837;57.148;-2.144;2024-02-26T05:36:20;1.95;;;0.70;;
27365;SDS011;14837;57.148;-2.144;2024-02-26T05:38:48;4.72;;;1.13;;
27365;SDS011;14837;57.148;-2.144;2024-02-26T05:41:15;1.73;;;0.50;;
27365;SDS011;14837;57.148;-2.144;2024-02-26T05:43:42;2.95;;;0.77;;
27365;SDS011;14837;57.148;-2.144;2024-02-26T05:46:09;2.13;;;0.88;;
27365;SDS011;14837;57.148;-2.144;2024-02-26T05:48:35;1.35;;;0.77;;
27365;SDS011;14837;57.148;-2.144;2024-02-26T05:51:02;2.28;;;0.90;;
27365;SDS011;14837;57.148;-2.144;2024-02-26T05:53:29;2.67;;;1.00;;
27365;SDS011;14837;57.148;-2.144;2024-02-26T05:55:55;2.83;;;0.90;;
27365;SDS011;14837;57.148;-2.144;2024-02-26T05:58:22;2.20;;;0.85;;
27365;SDS011;14837;57.148;-2.144;2024-02-26T06:00:48;2.30;;;0.80;;
27365;SDS011;14837;57.148;-2.144;2024-02-26T06:03:15;2.83;;;0.90;;
27365;SDS011;14837;57.148;-2.144;2024-02-26T06:05:42;1.35;;;0.80;;
27365;SDS011;14837;57.148;-2.144;2024-02-26T06:08:09;2.67;;;0.95;;
27365;SDS011;14837;57.148;-2.144;2024-02-26T06:10:36;2.35;;;0.98;;
27365;SDS011;14837;57.148;-2.144;2024-02-26T06:13:02;3.90;;;1.05;;
27365;SDS011;14837;57.148;-2.144;2024-02-26T06:15:29;2.83;;;0.90;;
27365;SDS011;14837;57.148;-2.144;2024-02-26T06:17:56;3.22;;;1.23;;
27365;SDS011;14837;57.148;-2.144;2024-02-26T06:20:22;2.47;;;1.08;;
27365;SDS011;14837;57.148;-2.144;2024-02-26T06:22:49;3.47;;;1.10;;
27365;SDS011;14837;57.148;-2.144;2024-02-26T06:25:15;1.55;;;0.77;;
27365;SDS011;14837;57.148;-2.144;2024-02-26T06:27:42;3.97;;;1.20;;
27365;SDS011;14837;57.148;-2.144;2024-02-26T06:30:09;4.60;;;1.20;;
27365;SDS011;14837;57.148;-2.144;2024-02-26T06:32:37;3.17;;;1.10;;
27365;SDS011;14837;57.148;-2.144;2024-02-26T06:35:04;1.77;;;1.05;;
27365;SDS011;14837;57.148;-2.144;2024-02-26T06:37:35;1.63;;;0.98;;
27365;SDS011;14837;57.148;-2.144;2024-02-26T06:40:02;3.45;;;1.23;;
27365;SDS011;14837;57.148;-2.144;2024-02-26T06:42:32;2.63;;;0.90;;
27365;SDS011;14837;57.148;-2.144;2024-02-26T06:44:59;1.65;;;0.80;;
27365;SDS011;14837;57.148;-2.144;2024-02-26T06:47:26;2.67;;;1.20;;
27365;SDS011;14837;57.148;-2.144;2024-02-26T06:49:52;1.30;;;1.20;;
27365;SDS011;14837;57.148;-2.144;2024-02-26T06:52:20;4.88;;;1.55;;
27365;SDS011;14837;57.148;-2.144;2024-02-26T06:54:46;2.15;;;0.90;;
27365;SDS011;14837;57.148;-2.144;2024-02-26T06:57:15;4.35;;;1.00;;
27365;SDS011;14837;57.148;-2.144;2024-02-26T06:59:41;3.00;;;1.10;;
27365;SDS011;14837;57.148;-2.144;2024-02-26T07:02:15;3.83;;;1.33;;
27365;SDS011;14837;57.148;-2.144;2024-02-26T07:04:43;2.28;;;1.02;;
27365;SDS011;14837;57.148;-2.144;2024-02-26T07:07:09;2.15;;;1.55;;
27365;SDS011;14837;57.148;-2.144;2024-02-26T07:09:37;3.03;;;0.90;;
27365;SDS011;14837;57.148;-2.144;2024-02-26T07:12:03;4.78;;;1.70;;
27365;SDS011;14837;57.148;-2.144;2024-02-26T07:14:30;2.20;;;0.95;;
27365;SDS011;14837;57.148;-2.144;2024-02-26T07:16:57;5.15;;;1.60;;
27365;SDS011;14837;57.148;-2.144;2024-02-26T07:19:24;5.32;;;1.33;;
27365;SDS011;14837;57.148;-2.144;2024-02-26T07:21:51;2.90;;;1.10;;
27365;SDS011;14837;57.148;-2.144;2024-02-26T07:24:18;5.47;;;1.30;;
27365;SDS011;14837;57.148;-2.144;2024-02-26T07:26:44;3.95;;;0.98;;
27365;SDS011;14837;57.148;-2.144;2024-02-26T07:29:11;2.35;;;1.10;;
27365;SDS011;14837;57.148;-2.144;2024-02-26T07:31:37;3.13;;;1.15;;
27365;SDS011;14837;57.148;-2.144;2024-02-26T07:34:04;2.35;;;1.00;;
27365;SDS011;14837;57.148;-2.144;2024-02-26T07:36:31;1.92;;;1.58;;
27365;SDS011;14837;57.148;-2.144;2024-02-26T07:38:57;3.28;;;1.08;;
27365;SDS011;14837;57.148;-2.144;2024-02-26T07:41:24;3.38;;;1.20;;
27365;SDS011;14837;57.148;-2.144;2024-02-26T07:43:51;4.13;;;1.27;;
27365;SDS011;14837;57.148;-2.144;2024-02-26T07:46:18;2.85;;;1.20;;
27365;SDS011;14837;57.148;-2.144;2024-02-26T07:48:45;3.33;;;1.10;;
27365;SDS011;14837;57.148;-2.144;2024-02-26T07:51:12;2.10;;;0.93;;
27365;SDS011;14837;57.148;-2.144;2024-02-26T07:53:40;4.88;;;1.67;;
27365;SDS011;14837;57.148;-2.144;2024-02-26T07:56:07;4.88;;;1.45;;
27365;SDS011;14837;57.148;-2.144;2024-02-26T07:58:34;3.88;;;1.23;;
27365;SDS011;14837;57.148;-2.144;2024-02-26T08:01:00;2.60;;;1.40;;
27365;SDS011;14837;57.148;-2.144;2024-02-26T08:03:27;4.93;;;1.63;;
27365;SDS011;14837;57.148;-2.144;2024-02-26T08:05:54;4.90;;;1.85;;
27365;SDS011;14837;57.148;-2.144;2024-02-26T08:08:21;3.40;;;1.60;;
27365;SDS011;14837;57.148;-2.144;2024-02-26T08:10:48;3.72;;;1.65;;
27365;SDS011;14837;57.148;-2.144;2024-02-26T08:13:14;4.43;;;1.80;;
27365;SDS011;14837;57.148;-2.144;2024-02-26T08:15:41;7.15;;;1.50;;
27365;SDS011;14837;57.148;-2.144;2024-02-26T08:18:08;3.67;;;1.45;;
27365;SDS011;14837;57.148;-2.144;2024-02-26T08:20:35;2.00;;;1.10;;
27365;SDS011;14837;57.148;-2.144;2024-02-26T08:23:01;2.35;;;1.20;;
27365;SDS011;14837;57.148;-2.144;2024-02-26T08:25:28;2.88;;;1.27;;
27365;SDS011;14837;57.148;-2.144;2024-02-26T08:27:54;1.90;;;1.33;;
27365;SDS011;14837;57.148;-2.144;2024-02-26T08:30:21;5.75;;;1.67;;
27365;SDS011;14837;57.148;-2.144;2024-02-26T08:32:48;2.33;;;0.93;;
27365;SDS011;14837;57.148;-2.144;2024-02-26T08:35:18;1.75;;;1.08;;
27365;SDS011;14837;57.148;-2.144;2024-02-26T08:37:45;3.65;;;1.73;;
27365;SDS011;14837;57.148;-2.144;2024-02-26T08:40:12;4.30;;;1.13;;
27365;SDS011;14837;57.148;-2.144;2024-02-26T08:42:39;4.65;;;1.63;;
27365;SDS011;14837;57.148;-2.144;2024-02-26T08:45:06;3.17;;;1.40;;
27365;SDS011;14837;57.148;-2.144;2024-02-26T08:47:33;1.45;;;1.15;;
27365;SDS011;14837;57.148;-2.144;2024-02-26T08:50:00;4.03;;;1.45;;
27365;SDS011;14837;57.148;-2.144;2024-02-26T08:52:26;4.00;;;1.85;;
27365;SDS011;14837;57.148;-2.144;2024-02-26T08:54:53;2.53;;;1.45;;
27365;SDS011;14837;57.148;-2.144;2024-02-26T08:57:19;4.97;;;1.50;;
27365;SDS011;14837;57.148;-2.144;2024-02-26T08:59:46;1.80;;;1.15;;
27365;SDS011;14837;57.148;-2.144;2024-02-26T09:02:13;2.78;;;1.40;;
27365;SDS011;14837;57.148;-2.144;2024-02-26T09:04:39;3.95;;;1.17;;
27365;SDS011;14837;57.148;-2.144;2024-02-26T09:07:06;4.40;;;1.83;;
27365;SDS011;14837;57.148;-2.144;2024-02-26T09:09:33;3.88;;;1.42;;
27365;SDS011;14837;57.148;-2.144;2024-02-26T09:11:59;3.05;;;1.20;;
27365;SDS011;14837;57.148;-2.144;2024-02-26T09:14:26;3.10;;;0.90;;
27365;SDS011;14837;57.148;-2.144;2024-02-26T09:16:54;3.60;;;1.40;;
27365;SDS011;14837;57.148;-2.144;2024-02-26T09:19:20;2.17;;;1.05;;
27365;SDS011;14837;57.148;-2.144;2024-02-26T09:21:47;5.13;;;1.40;;
27365;SDS011;14837;57.148;-2.144;2024-02-26T09:24:13;3.35;;;1.63;;
27365;SDS011;14837;57.148;-2.144;2024-02-26T09:26:41;3.75;;;1.38;;
27365;SDS011;14837;57.148;-2.144;2024-02-26T09:29:08;2.97;;;1.45;;
27365;SDS011;14837;57.148;-2.144;2024-02-26T09:31:35;3.42;;;1.90;;
27365;SDS011;14837;57.148;-2.144;2024-02-26T09:34:01;2.65;;;1.00;;
27365;SDS011;14837;57.148;-2.144;2024-02-26T09:36:29;5.05;;;1.20;;
27365;SDS011;14837;57.148;-2.144;2024-02-26T09:38:55;2.90;;;1.40;;
27365;SDS011;14837;57.148;-2.144;2024-02-26T09:41:30;6.25;;;1.77;;
27365;SDS011;14837;57.148;-2.144;2024-02-26T09:43:57;3.70;;;1.70;;
27365;SDS011;14837;57.148;-2.144;2024-02-26T09:46:25;3.08;;;1.75;;
27365;SDS011;14837;57.148;-2.144;2024-02-26T09:48:51;6.88;;;1.77;;
27365;SDS011;14837;57.148;-2.144;2024-02-26T09:51:19;5.85;;;1.48;;
27365;SDS011;14837;57.148;-2.144;2024-02-26T09:53:46;3.33;;;1.45;;
27365;SDS011;14837;57.148;-2.144;2024-02-26T09:56:13;4.65;;;1.33;;
27365;SDS011;14837;57.148;-2.144;2024-02-26T09:58:41;1.85;;;1.52;;
27365;SDS011;14837;57.148;-2.144;2024-02-26T10:01:13;4.18;;;1.35;;
27365;SDS011;14837;57.148;-2.144;2024-02-26T10:03:42;3.65;;;1.00;;
27365;SDS011;14837;57.148;-2.144;2024-02-26T10:06:12;1.55;;;0.93;;
27365;SDS011;14837;57.148;-2.144;2024-02-26T10:08:39;4.05;;;1.30;;
27365;SDS011;14837;57.148;-2.144;2024-02-26T10:11:07;2.53;;;1.27;;
27365;SDS011;14837;57.148;-2.144;2024-02-26T10:13:34;3.70;;;1.00;;
27365;SDS011;14837;57.148;-2.144;2024-02-26T10:16:01;3.90;;;0.93;;
27365;SDS011;14837;57.148;-2.144;2024-02-26T10:18:46;5.75;;;1.70;;
27365;SDS011;14837;57.148;-2.144;2024-02-26T10:21:24;2.92;;;1.00;;
27365;SDS011;14837;57.148;-2.144;2024-02-26T10:23:51;3.97;;;1.13;;
27365;SDS011;14837;57.148;-2.144;2024-02-26T10:26:18;3.08;;;0.93;;
27365;SDS011;14837;57.148;-2.144;2024-02-26T10:28:45;3.22;;;1.42;;
27365;SDS011;14837;57.148;-2.144;2024-02-26T10:31:14;2.85;;;1.10;;
27365;SDS011;14837;57.148;-2.144;2024-02-26T10:33:41;2.55;;;1.10;;
27365;SDS011;14837;57.148;-2.144;2024-02-26T10:36:09;3.03;;;0.90;;
27365;SDS011;14837;57.148;-2.144;2024-02-26T10:38:36;1.88;;;0.90;;
27365;SDS011;14837;57.148;-2.144;2024-02-26T10:41:06;3.33;;;1.20;;
27365;SDS011;14837;57.148;-2.144;2024-02-26T10:43:32;1.48;;;0.82;;
27365;SDS011;14837;57.148;-2.144;2024-02-26T10:45:59;1.77;;;1.10;;
27365;SDS011;14837;57.148;-2.144;2024-02-26T10:48:25;2.50;;;1.40;;
27365;SDS011;14837;57.148;-2.144;2024-02-26T10:50:52;3.42;;;1.05;;
27365;SDS011;14837;57.148;-2.144;2024-02-26T10:53:20;5.18;;;0.98;;
27365;SDS011;14837;57.148;-2.144;2024-02-26T10:55:48;3.13;;;1.15;;
27365;SDS011;14837;57.148;-2.144;2024-02-26T10:58:16;3.85;;;1.00;;
27365;SDS011;14837;57.148;-2.144;2024-02-26T11:00:43;2.38;;;0.77;;
27365;SDS011;14837;57.148;-2.144;2024-02-26T11:03:10;0.98;;;0.70;;
27365;SDS011;14837;57.148;-2.144;2024-02-26T11:05:37;2.83;;;1.17;;
27365;SDS011;14837;57.148;-2.144;2024-02-26T11:08:05;1.38;;;1.02;;
27365;SDS011;14837;57.148;-2.144;2024-02-26T11:10:31;2.53;;;0.95;;
27365;SDS011;14837;57.148;-2.144;2024-02-26T11:12:59;3.97;;;1.95;;
27365;SDS011;14837;57.148;-2.144;2024-02-26T11:15:28;3.60;;;1.10;;
27365;SDS011;14837;57.148;-2.144;2024-02-26T11:17:55;2.85;;;1.00;;
27365;SDS011;14837;57.148;-2.144;2024-02-26T11:20:22;3.42;;;0.98;;
27365;SDS011;14837;57.148;-2.144;2024-02-26T11:22:49;1.50;;;0.70;;
27365;SDS011;14837;57.148;-2.144;2024-02-26T11:25:16;1.58;;;1.08;;
27365;SDS011;14837;57.148;-2.144;2024-02-26T11:27:44;7.88;;;0.93;;
27365;SDS011;14837;57.148;-2.144;2024-02-26T11:30:12;1.73;;;0.68;;
27365;SDS011;14837;57.148;-2.144;2024-02-26T11:32:39;0.98;;;0.50;;
27365;SDS011;14837;57.148;-2.144;2024-02-26T11:35:06;1.10;;;0.60;;
27365;SDS011;14837;57.148;-2.144;2024-02-26T11:37:34;1.92;;;0.68;;
27365;SDS011;14837;57.148;-2.144;2024-02-26T11:40:15;4.32;;;0.85;;
27365;SDS011;14837;57.148;-2.144;2024-02-26T11:42:44;2.88;;;0.93;;
27365;SDS011;14837;57.148;-2.144;2024-02-26T11:48:12;4.63;;;1.98;;
27365;SDS011;14837;57.148;-2.144;2024-02-26T11:50:40;1.63;;;0.60;;
27365;SDS011;14837;57.148;-2.144;2024-02-26T11:58:39;3.97;;;0.88;;
27365;SDS011;14837;57.148;-2.144;2024-02-26T12:01:06;1.35;;;0.82;;
27365;SDS011;14837;57.148;-2.144;2024-02-26T12:03:54;3.50;;;0.82;;
27365;SDS011;14837;57.148;-2.144;2024-02-26T12:06:20;2.05;;;0.90;;
27365;SDS011;14837;57.148;-2.144;2024-02-26T12:08:47;1.83;;;0.73;;
27365;SDS011;14837;57.148;-2.144;2024-02-26T12:11:15;1.30;;;0.60;;
27365;SDS011;14837;57.148;-2.144;2024-02-26T12:13:45;1.73;;;0.90;;
27365;SDS011;14837;57.148;-2.144;2024-02-26T12:16:13;1.80;;;1.17;;
27365;SDS011;14837;57.148;-2.144;2024-02-26T12:19:00;1.83;;;1.20;;
27365;SDS011;14837;57.148;-2.144;2024-02-26T12:21:27;1.63;;;0.70;;
27365;SDS011;14837;57.148;-2.144;2024-02-26T12:23:53;1.00;;;0.57;;
27365;SDS011;14837;57.148;-2.144;2024-02-26T12:26:20;1.27;;;0.57;;
27365;SDS011;14837;57.148;-2.144;2024-02-26T12:28:46;0.60;;;0.55;;
27365;SDS011;14837;57.148;-2.144;2024-02-26T12:31:13;1.80;;;0.55;;
27365;SDS011;14837;57.148;-2.144;2024-02-26T12:33:40;1.13;;;0.50;;
27365;SDS011;14837;57.148;-2.144;2024-02-26T12:36:07;2.72;;;1.25;;
27365;SDS011;14837;57.148;-2.144;2024-02-26T12:38:34;0.70;;;0.55;;
27365;SDS011;14837;57.148;-2.144;2024-02-26T12:41:02;2.55;;;0.70;;
27365;SDS011;14837;57.148;-2.144;2024-02-26T12:43:29;1.70;;;0.63;;
27365;SDS011;14837;57.148;-2.144;2024-02-26T12:45:56;0.75;;;0.52;;
27365;SDS011;14837;57.148;-2.144;2024-02-26T12:48:22;1.67;;;0.65;;
27365;SDS011;14837;57.148;-2.144;2024-02-26T12:50:49;1.17;;;0.60;;
27365;SDS011;14837;57.148;-2.144;2024-02-26T12:53:16;0.50;;;0.43;;
27365;SDS011;14837;57.148;-2.144;2024-02-26T12:55:43;0.82;;;0.50;;
27365;SDS011;14837;57.148;-2.144;2024-02-26T12:58:10;1.02;;;0.70;;
27365;SDS011;14837;57.148;-2.144;2024-02-26T13:00:37;1.40;;;0.60;;
27365;SDS011;14837;57.148;-2.144;2024-02-26T13:03:04;0.50;;;0.45;;
27365;SDS011;14837;57.148;-2.144;2024-02-26T13:05:31;1.70;;;0.70;;
27365;SDS011;14837;57.148;-2.144;2024-02-26T13:07:58;1.52;;;0.40;;
27365;SDS011;14837;57.148;-2.144;2024-02-26T13:10:24;0.22;;;0.22;;
27365;SDS011;14837;57.148;-2.144;2024-02-26T13:12:51;1.63;;;0.40;;
27365;SDS011;14837;57.148;-2.144;2024-02-26T13:15:19;1.50;;;0.40;;
27365;SDS011;14837;57.148;-2.144;2024-02-26T13:17:46;0.57;;;0.50;;
27365;SDS011;14837;57.148;-2.144;2024-02-26T13:20:13;0.85;;;0.45;;
27365;SDS011;14837;57.148;-2.144;2024-02-26T13:22:50;0.45;;;0.40;;
27365;SDS011;14837;57.148;-2.144;2024-02-26T13:25:20;0.30;;;0.30;;
27365;SDS011;14837;57.148;-2.144;2024-02-26T13:27:46;0.88;;;0.50;;
27365;SDS011;14837;57.148;-2.144;2024-02-26T13:30:13;0.57;;;0.40;;
27365;SDS011;14837;57.148;-2.144;2024-02-26T13:32:40;0.50;;;0.40;;
27365;SDS011;14837;57.148;-2.144;2024-02-26T13:35:10;0.47;;;0.47;;
27365;SDS011;14837;57.148;-2.144;2024-02-26T13:37:37;0.75;;;0.47;;
27365;SDS011;14837;57.148;-2.144;2024-02-26T13:40:08;1.58;;;0.50;;
27365;SDS011;14837;57.148;-2.144;2024-02-26T13:42:35;0.40;;;0.40;;
27365;SDS011;14837;57.148;-2.144;2024-02-26T13:45:02;1.35;;;0.50;;
27365;SDS011;14837;57.148;-2.144;2024-02-26T13:47:29;0.47;;;0.40;;
27365;SDS011;14837;57.148;-2.144;2024-02-26T13:49:59;1.55;;;0.32;;
27365;SDS011;14837;57.148;-2.144;2024-02-26T13:52:27;0.30;;;0.30;;
27365;SDS011;14837;57.148;-2.144;2024-02-26T13:54:53;1.40;;;0.60;;
27365;SDS011;14837;57.148;-2.144;2024-02-26T13:57:20;0.65;;;0.47;;
27365;SDS011;14837;57.148;-2.144;2024-02-26T13:59:46;0.30;;;0.30;;
27365;SDS011;14837;57.148;-2.144;2024-02-26T14:02:14;0.30;;;0.30;;
27365;SDS011;14837;57.148;-2.144;2024-02-26T14:04:40;0.40;;;0.40;;
27365;SDS011;14837;57.148;-2.144;2024-02-26T14:07:07;0.30;;;0.30;;
27365;SDS011;14837;57.148;-2.144;2024-02-26T14:09:35;0.40;;;0.40;;
27365;SDS011;14837;57.148;-2.144;2024-02-26T14:12:15;0.40;;;0.40;;
27365;SDS011;14837;57.148;-2.144;2024-02-26T14:14:41;0.43;;;0.43;;
27365;SDS011;14837;57.148;-2.144;2024-02-26T14:17:08;0.82;;;0.30;;
27365;SDS011;14837;57.148;-2.144;2024-02-26T14:19:35;0.40;;;0.40;;
27365;SDS011;14837;57.148;-2.144;2024-02-26T14:22:02;0.57;;;0.40;;
27365;SDS011;14837;57.148;-2.144;2024-02-26T14:24:28;1.77;;;0.40;;
27365;SDS011;14837;57.148;-2.144;2024-02-26T14:26:55;0.30;;;0.30;;
27365;SDS011;14837;57.148;-2.144;2024-02-26T14:29:22;0.30;;;0.30;;
27365;SDS011;14837;57.148;-2.144;2024-02-26T14:31:48;0.40;;;0.40;;
27365;SDS011;14837;57.148;-2.144;2024-02-26T14:34:15;0.73;;;0.40;;
27365;SDS011;14837;57.148;-2.144;2024-02-26T14:36:44;0.40;;;0.40;;
27365;SDS011;14837;57.148;-2.144;2024-02-26T14:39:10;0.50;;;0.50;;
27365;SDS011;14837;57.148;-2.144;2024-02-26T14:41:39;0.30;;;0.30;;